Time;durP1;ratioP1;P1;durP2;ratioP2;P2;SDS_P1;SDS_P2;PMS_P1;PMS_P2;Temp;Humidity;BMP_temperature;BMP_pressure;BME280_temperature;BME280_humidity;BME280_pressure;Samples;Min_cycle;Max_cycle;Signal;HPM_P1;HPM_P2
2023/08/08 00:00:26;;;;;;;5.57;2.50;;;13.80;99.90;;;;;;5097602;28;20165;-58
2023/08/08 00:02:51;;;;;;;8.88;2.85;;;13.70;99.90;;;;;;5097021;28;20051;-58
2023/08/08 00:05:17;;;;;;;8.00;2.90;;;13.80;99.90;;;;;;5098581;28;20052;-58
2023/08/08 00:07:42;;;;;;;8.10;2.65;;;13.60;99.90;;;;;;5096379;28;20133;-58
2023/08/08 00:10:08;;;;;;;8.55;2.80;;;13.60;99.90;;;;;;5098333;28;20662;-60
2023/08/08 00:12:34;;;;;;;7.10;2.83;;;13.70;99.90;;;;;;5078493;28;20040;-59
2023/08/08 00:15:00;;;;;;;7.45;2.42;;;13.70;99.90;;;;;;5098143;28;20094;-59
2023/08/08 00:17:25;;;;;;;8.85;2.47;;;13.60;99.90;;;;;;5097644;28;20052;-59
2023/08/08 00:19:51;;;;;;;7.22;2.88;;;13.70;99.90;;;;;;5097179;28;20032;-57
2023/08/08 00:22:17;;;;;;;7.38;2.30;;;13.70;99.90;;;;;;5098441;28;20040;-59
2023/08/08 00:24:42;;;;;;;7.10;2.78;;;13.70;99.90;;;;;;5096471;28;20070;-58
2023/08/08 00:27:08;;;;;;;9.18;2.92;;;13.60;99.90;;;;;;5098357;28;20044;-58
2023/08/08 00:29:34;;;;;;;8.93;2.97;;;13.60;99.90;;;;;;5096506;28;20040;-59
2023/08/08 00:31:59;;;;;;;8.80;2.88;;;13.60;99.90;;;;;;5097987;28;20044;-59
2023/08/08 00:34:25;;;;;;;10.75;2.75;;;13.60;99.90;;;;;;5096977;28;20047;-58
2023/08/08 00:36:51;;;;;;;9.65;3.28;;;13.70;99.90;;;;;;5097507;28;20079;-59
2023/08/08 00:39:16;;;;;;;9.05;3.00;;;13.50;99.90;;;;;;5098110;28;20097;-59
2023/08/08 00:41:43;;;;;;;7.15;3.25;;;13.60;99.90;;;;;;5096465;28;20077;-58
2023/08/08 00:44:10;;;;;;;6.68;2.60;;;13.50;99.90;;;;;;5098029;28;20056;-57
2023/08/08 00:46:35;;;;;;;8.52;2.75;;;13.60;99.90;;;;;;5098140;28;20080;-57
2023/08/08 00:49:01;;;;;;;9.73;2.90;;;13.60;99.90;;;;;;5101404;28;20051;-58
2023/08/08 00:51:27;;;;;;;7.18;3.05;;;13.60;99.90;;;;;;5100263;28;20039;-58
2023/08/08 00:53:54;;;;;;;7.65;2.65;;;13.60;99.90;;;;;;5100796;28;20757;-58
2023/08/08 00:56:20;;;;;;;7.10;2.70;;;13.60;99.90;;;;;;5094610;28;20074;-57
2023/08/08 00:58:46;;;;;;;7.00;2.80;;;13.50;99.90;;;;;;5079451;28;20045;-58
2023/08/08 01:01:12;;;;;;;7.90;2.90;;;13.60;99.90;;;;;;5081376;28;20049;-58
2023/08/08 01:03:38;;;;;;;9.45;2.95;;;13.60;99.90;;;;;;5079607;28;20033;-58
2023/08/08 01:06:12;;;;;;;7.55;2.97;;;13.50;99.90;;;;;;5080681;28;20078;-58
2023/08/08 01:08:50;;;;;;;9.55;3.15;;;13.40;99.90;;;;;;5080144;28;20095;-58
2023/08/08 01:11:17;;;;;;;11.45;3.05;;;13.30;99.90;;;;;;5079586;28;20048;-58
2023/08/08 01:13:44;;;;;;;7.82;2.75;;;13.40;99.90;;;;;;5081241;28;20044;-58
2023/08/08 01:16:10;;;;;;;10.48;2.92;;;13.40;99.90;;;;;;5079031;28;20698;-58
2023/08/08 01:18:37;;;;;;;8.35;2.88;;;13.30;99.90;;;;;;5080730;28;20438;-57
2023/08/08 01:21:03;;;;;;;7.68;2.63;;;13.30;99.90;;;;;;5079207;28;20059;-57
2023/08/08 01:23:36;;;;;;;6.75;2.47;;;13.30;99.90;;;;;;5080516;28;20040;-58
2023/08/08 01:26:03;;;;;;;7.82;2.80;;;13.20;99.90;;;;;;5080304;28;20054;-57
2023/08/08 01:28:28;;;;;;;6.85;2.75;;;13.20;99.90;;;;;;5079195;28;20108;-58
2023/08/08 01:30:54;;;;;;;5.63;2.67;;;13.30;99.90;;;;;;5081117;28;20068;-57
2023/08/08 01:33:20;;;;;;;9.25;2.92;;;13.30;99.90;;;;;;5078581;28;20040;-58
2023/08/08 01:35:50;;;;;;;8.27;2.88;;;13.30;99.90;;;;;;5080624;28;20066;-57
2023/08/08 01:38:36;;;;;;;7.30;2.83;;;13.30;99.90;;;;;;5078769;28;20040;-59
2023/08/08 01:41:05;;;;;;;8.02;2.70;;;13.30;99.90;;;;;;5061931;28;20044;-58
2023/08/08 01:43:33;;;;;;;7.22;2.80;;;13.30;99.90;;;;;;5080679;28;20082;-58
2023/08/08 01:46:00;;;;;;;7.30;2.65;;;13.40;99.90;;;;;;5078442;28;20182;-58
2023/08/08 01:48:27;;;;;;;8.70;2.63;;;13.40;99.90;;;;;;5080495;28;20102;-58
2023/08/08 01:50:53;;;;;;;7.22;2.70;;;13.30;99.90;;;;;;5078489;28;20535;-58
2023/08/08 01:53:18;;;;;;;6.07;2.83;;;13.20;99.90;;;;;;5079916;28;20048;-58
2023/08/08 01:55:44;;;;;;;7.50;2.50;;;13.30;99.90;;;;;;5081014;28;20060;-57
2023/08/08 01:58:10;;;;;;;7.00;2.60;;;13.30;99.90;;;;;;5098558;28;20398;-58
2023/08/08 02:00:36;;;;;;;7.38;2.95;;;13.30;99.90;;;;;;5100477;28;20133;-58
2023/08/08 02:03:02;;;;;;;9.07;2.88;;;13.40;99.90;;;;;;5098308;28;20141;-58
2023/08/08 02:05:28;;;;;;;9.20;2.95;;;13.30;99.90;;;;;;5100464;28;20066;-58
2023/08/08 02:07:54;;;;;;;7.50;2.60;;;13.40;99.90;;;;;;5098086;28;20032;-57
2023/08/08 02:10:19;;;;;;;8.18;2.88;;;13.40;99.90;;;;;;5100401;28;20082;-58
2023/08/08 02:12:45;;;;;;;5.95;2.90;;;13.30;99.90;;;;;;5098513;28;20066;-57
2023/08/08 02:15:11;;;;;;;7.65;2.92;;;13.40;99.90;;;;;;5099626;28;20060;-58
2023/08/08 02:17:38;;;;;;;7.05;2.78;;;13.40;99.90;;;;;;5099751;28;20046;-58
2023/08/08 02:20:05;;;;;;;9.07;2.78;;;13.40;99.90;;;;;;5097757;28;20573;-58
2023/08/08 02:22:30;;;;;;;7.97;2.97;;;13.30;99.90;;;;;;5082097;28;20040;-58
2023/08/08 02:24:56;;;;;;;7.57;2.97;;;13.30;99.90;;;;;;5079965;28;20062;-58
2023/08/08 02:27:22;;;;;;;9.52;2.92;;;13.40;99.90;;;;;;5100024;28;20044;-58
2023/08/08 02:29:47;;;;;;;11.13;3.25;;;13.40;99.90;;;;;;5098027;28;20081;-58
2023/08/08 02:32:13;;;;;;;9.65;2.88;;;13.40;99.90;;;;;;5099540;28;20032;-57
2023/08/08 02:34:39;;;;;;;6.78;2.80;;;13.40;99.90;;;;;;5099239;28;20052;-57
2023/08/08 02:37:04;;;;;;;9.27;2.80;;;13.40;99.90;;;;;;5098107;28;20083;-58
2023/08/08 02:39:30;;;;;;;8.98;2.80;;;13.40;99.90;;;;;;5100163;28;20594;-58
2023/08/08 02:41:56;;;;;;;9.30;2.80;;;13.40;99.90;;;;;;5097436;28;20070;-58
2023/08/08 02:44:22;;;;;;;6.72;2.90;;;13.40;99.90;;;;;;5099818;28;20085;-58
2023/08/08 02:46:48;;;;;;;8.15;2.75;;;13.40;99.90;;;;;;5097479;28;20048;-58
2023/08/08 02:49:14;;;;;;;11.15;2.75;;;13.40;99.90;;;;;;5098877;28;20042;-58
2023/08/08 02:51:40;;;;;;;6.30;2.55;;;13.30;99.90;;;;;;5098383;28;20079;-57
2023/08/08 02:54:05;;;;;;;7.85;2.75;;;13.30;99.90;;;;;;5079921;28;20044;-59
2023/08/08 02:56:31;;;;;;;10.43;2.60;;;13.30;99.90;;;;;;5090952;28;20041;-58
2023/08/08 02:58:58;;;;;;;7.35;2.72;;;13.30;99.90;;;;;;5076742;28;20047;-58
2023/08/08 03:01:23;;;;;;;6.82;2.08;;;13.30;99.90;;;;;;5079398;28;20108;-58
2023/08/08 03:03:50;;;;;;;7.57;2.58;;;13.30;99.90;;;;;;5076751;28;20041;-58
2023/08/08 03:06:15;;;;;;;6.50;2.20;;;13.30;99.90;;;;;;5078883;28;20047;-58
2023/08/08 03:08:41;;;;;;;7.72;2.22;;;13.30;99.90;;;;;;5077352;28;20045;-58
2023/08/08 03:11:07;;;;;;;9.55;2.35;;;13.20;99.90;;;;;;5077848;28;20129;-58
2023/08/08 03:13:33;;;;;;;6.93;2.33;;;13.10;99.90;;;;;;5078786;28;20084;-58
2023/08/08 03:15:58;;;;;;;7.28;2.70;;;13.30;99.90;;;;;;5077026;28;20041;-56
2023/08/08 03:18:25;;;;;;;8.02;2.20;;;13.20;99.90;;;;;;5078548;28;20040;-58
2023/08/08 03:20:52;;;;;;;7.75;2.20;;;13.20;99.90;;;;;;5058922;28;20064;-58
2023/08/08 03:23:18;;;;;;;9.43;2.30;;;13.20;99.90;;;;;;5078548;28;20079;-58
2023/08/08 03:25:44;;;;;;;7.85;2.30;;;13.20;99.90;;;;;;5077119;28;20348;-58
2023/08/08 03:28:09;;;;;;;8.23;2.10;;;13.20;99.90;;;;;;5060000;28;20043;-58
2023/08/08 03:30:38;;;;;;;6.63;2.63;;;13.10;99.90;;;;;;5078399;28;20056;-57
2023/08/08 03:33:05;;;;;;;6.78;1.90;;;13.10;99.90;;;;;;5076675;28;20032;-57
2023/08/08 03:35:30;;;;;;;8.70;2.00;;;13.10;99.90;;;;;;5078780;28;20094;-57
2023/08/08 03:37:56;;;;;;;5.80;1.98;;;13.10;99.90;;;;;;5058721;28;20041;-58
2023/08/08 03:40:22;;;;;;;6.60;2.10;;;13.00;99.90;;;;;;5078256;28;20080;-58
2023/08/08 03:42:47;;;;;;;7.00;1.98;;;12.90;99.90;;;;;;5076815;28;20065;-58
2023/08/08 03:45:13;;;;;;;10.45;2.20;;;13.00;99.90;;;;;;5077967;28;20049;-58
2023/08/08 03:47:39;;;;;;;5.53;1.52;;;13.00;99.90;;;;;;5078291;28;20054;-58
2023/08/08 03:50:07;;;;;;;7.90;2.10;;;12.90;99.90;;;;;;5076471;28;20267;-59
2023/08/08 03:52:35;;;;;;;5.55;1.55;;;12.90;99.90;;;;;;5078684;28;20118;-58
2023/08/08 03:55:01;;;;;;;5.82;1.77;;;12.90;99.90;;;;;;5076552;28;20087;-57
2023/08/08 03:57:27;;;;;;;6.45;1.70;;;12.80;99.90;;;;;;5094485;28;20048;-58
2023/08/08 03:59:52;;;;;;;4.88;1.50;;;12.90;99.90;;;;;;5097144;28;20056;-58
2023/08/08 04:02:18;;;;;;;5.28;1.50;;;12.90;99.90;;;;;;5098136;28;20147;-58
2023/08/08 04:04:44;;;;;;;6.93;1.70;;;12.90;99.90;;;;;;5098011;28;20098;-57
2023/08/08 04:07:09;;;;;;;6.20;1.80;;;12.90;99.90;;;;;;5096985;28;20063;-58
2023/08/08 04:09:35;;;;;;;6.45;1.73;;;12.80;99.90;;;;;;5098519;28;20112;-58
2023/08/08 04:12:01;;;;;;;9.38;1.98;;;12.90;99.90;;;;;;5096560;28;20044;-58
2023/08/08 04:14:27;;;;;;;8.02;1.50;;;12.80;99.90;;;;;;5098036;28;20048;-58
2023/08/08 04:16:52;;;;;;;7.57;2.13;;;12.80;99.90;;;;;;5096969;28;20080;-57
2023/08/08 04:19:18;;;;;;;6.70;1.40;;;12.90;99.90;;;;;;5097592;28;20043;-58
2023/08/08 04:21:44;;;;;;;6.65;1.60;;;12.90;99.90;;;;;;5100481;28;20099;-57
2023/08/08 04:24:09;;;;;;;6.93;1.67;;;12.80;99.90;;;;;;5100578;28;20052;-57
2023/08/08 04:26:35;;;;;;;7.22;2.00;;;12.90;99.90;;;;;;5102398;28;20040;-58
2023/08/08 04:29:00;;;;;;;6.63;1.85;;;12.80;99.90;;;;;;5100072;28;20051;-58
2023/08/08 04:31:26;;;;;;;7.50;1.70;;;12.90;99.90;;;;;;5101876;28;20044;-58
2023/08/08 04:33:58;;;;;;;6.88;1.63;;;12.90;99.90;;;;;;5100247;28;20044;-58
2023/08/08 04:36:23;;;;;;;6.60;1.75;;;13.00;99.90;;;;;;5101626;28;20494;-58
2023/08/08 04:38:49;;;;;;;11.55;1.73;;;12.90;99.90;;;;;;5101590;28;20067;-57
2023/08/08 04:41:15;;;;;;;8.23;1.80;;;13.00;99.90;;;;;;5100618;28;20044;-58
2023/08/08 04:43:40;;;;;;;6.85;1.58;;;13.00;99.90;;;;;;5101969;28;20056;-58
2023/08/08 04:46:06;;;;;;;7.30;1.88;;;13.00;99.90;;;;;;5100068;28;20067;-58
2023/08/08 04:48:32;;;;;;;9.02;2.40;;;13.10;99.90;;;;;;5101811;28;20036;-59
2023/08/08 04:50:58;;;;;;;7.30;1.95;;;13.10;99.90;;;;;;5099956;28;20111;-58
2023/08/08 04:53:23;;;;;;;8.82;1.60;;;13.30;99.90;;;;;;5101490;28;20035;-58
2023/08/08 04:55:49;;;;;;;4.32;1.48;;;13.20;99.90;;;;;;5097832;28;20076;-58
2023/08/08 04:58:15;;;;;;;6.03;1.60;;;13.30;99.90;;;;;;5080015;28;20100;-58
2023/08/08 05:00:40;;;;;;;6.53;1.58;;;13.30;99.90;;;;;;5081627;28;20418;-57
2023/08/08 05:03:06;;;;;;;5.00;1.50;;;13.50;99.90;;;;;;5079360;28;20551;-57
2023/08/08 05:05:32;;;;;;;8.65;1.60;;;13.40;99.90;;;;;;5081506;28;20539;-58
2023/08/08 05:07:58;;;;;;;5.30;1.40;;;13.50;99.90;;;;;;5079337;28;20079;-58
2023/08/08 05:10:24;;;;;;;6.55;1.70;;;13.60;99.90;;;;;;5080727;28;20407;-58
2023/08/08 05:12:49;;;;;;;6.93;1.60;;;13.60;99.90;;;;;;5079787;28;20051;-59
2023/08/08 05:15:15;;;;;;;6.13;1.73;;;13.60;99.90;;;;;;5079915;28;20036;-58
2023/08/08 05:17:41;;;;;;;6.22;1.42;;;13.80;99.90;;;;;;5063236;28;20342;-58
2023/08/08 05:20:08;;;;;;;8.43;1.70;;;13.80;99.90;;;;;;5078605;28;20060;-58
2023/08/08 05:22:34;;;;;;;7.65;1.38;;;13.80;99.90;;;;;;5063414;28;20048;-58
2023/08/08 05:24:59;;;;;;;5.97;1.65;;;13.80;99.90;;;;;;5078853;28;20085;-58
2023/08/08 05:27:25;;;;;;;6.00;1.30;;;13.90;99.90;;;;;;5080566;28;20032;-58
2023/08/08 05:29:51;;;;;;;6.90;1.92;;;13.90;99.90;;;;;;5079400;28;20062;-58
2023/08/08 05:32:16;;;;;;;10.18;1.85;;;14.10;99.90;;;;;;5062127;28;20049;-58
2023/08/08 05:34:42;;;;;;;5.13;1.50;;;14.00;99.90;;;;;;5080640;28;20036;-58
2023/08/08 05:37:07;;;;;;;4.82;1.40;;;13.80;99.90;;;;;;5060790;28;20131;-58
2023/08/08 05:39:33;;;;;;;4.65;1.30;;;14.00;99.90;;;;;;5081074;28;20040;-58
2023/08/08 05:41:59;;;;;;;6.03;1.92;;;14.00;99.90;;;;;;5078356;28;20047;-58
2023/08/08 05:44:24;;;;;;;5.05;1.20;;;14.10;99.90;;;;;;5080435;28;20053;-58
2023/08/08 05:46:51;;;;;;;7.38;1.50;;;14.20;99.90;;;;;;5078627;28;20101;-58
2023/08/08 05:49:17;;;;;;;7.03;1.67;;;14.20;99.90;;;;;;5079517;28;20045;-58
2023/08/08 05:51:43;;;;;;;6.63;1.40;;;14.20;99.90;;;;;;5079764;28;20368;-58
2023/08/08 05:54:11;;;;;;;7.13;1.63;;;14.20;99.90;;;;;;5078744;28;20083;-57
2023/08/08 05:56:37;;;;;;;5.18;1.40;;;14.40;99.90;;;;;;5089786;28;20055;-58
2023/08/08 05:59:04;;;;;;;7.38;1.65;;;14.40;99.90;;;;;;5080466;28;20075;-58
2023/08/08 06:01:31;;;;;;;7.82;1.75;;;14.50;99.90;;;;;;5100704;28;20052;-58
2023/08/08 06:03:59;;;;;;;10.20;1.77;;;14.60;99.90;;;;;;5098602;28;20463;-57
2023/08/08 06:06:25;;;;;;;8.30;2.13;;;14.80;99.90;;;;;;5100067;28;20056;-58
2023/08/08 06:08:51;;;;;;;6.40;1.50;;;14.80;99.90;;;;;;5099654;28;20055;-58
2023/08/08 06:11:17;;;;;;;6.00;1.80;;;14.90;99.90;;;;;;5098296;28;20079;-58
2023/08/08 06:13:43;;;;;;;7.50;1.45;;;14.90;99.90;;;;;;5100787;28;20047;-58
2023/08/08 06:16:09;;;;;;;7.82;1.50;;;15.00;99.90;;;;;;5097917;28;20048;-58
2023/08/08 06:18:35;;;;;;;6.07;1.38;;;15.20;99.90;;;;;;5082131;28;20044;-58
2023/08/08 06:21:01;;;;;;;5.72;1.20;;;15.10;99.90;;;;;;5098165;28;20051;-58
2023/08/08 06:23:27;;;;;;;9.43;1.42;;;15.20;99.90;;;;;;5099889;28;20039;-58
2023/08/08 06:25:53;;;;;;;5.20;1.33;;;15.20;99.90;;;;;;5099174;28;20082;-58
2023/08/08 06:28:19;;;;;;;7.45;1.50;;;15.40;99.90;;;;;;5098848;28;20032;-59
2023/08/08 06:30:45;;;;;;;9.43;1.52;;;15.50;99.90;;;;;;5099748;28;20186;-57
2023/08/08 06:33:10;;;;;;;9.50;1.40;;;15.50;99.90;;;;;;5097732;28;20044;-58
2023/08/08 06:35:37;;;;;;;5.65;1.15;;;15.50;99.90;;;;;;5100019;28;20774;-59
2023/08/08 06:38:03;;;;;;;7.47;1.30;;;15.60;99.90;;;;;;5097746;28;20074;-58
2023/08/08 06:40:29;;;;;;;11.23;2.10;;;15.60;99.90;;;;;;5099427;28;20040;-58
2023/08/08 06:42:55;;;;;;;5.60;1.23;;;15.60;99.90;;;;;;5097770;28;20130;-58
2023/08/08 06:45:21;;;;;;;7.07;1.60;;;15.60;99.90;;;;;;5098502;28;20115;-58
2023/08/08 06:47:47;;;;;;;6.50;1.13;;;15.70;99.90;;;;;;5099274;28;20086;-58
2023/08/08 06:50:13;;;;;;;8.90;1.33;;;15.80;99.90;;;;;;5097531;28;20106;-58
2023/08/08 06:52:38;;;;;;;5.68;1.00;;;15.80;99.90;;;;;;5099250;28;20051;-58
2023/08/08 06:55:04;;;;;;;7.43;1.35;;;15.80;99.90;;;;;;5097308;28;20040;-58
2023/08/08 06:57:33;;;;;;;7.70;1.50;;;15.80;99.90;;;;;;5082371;28;20044;-58
2023/08/08 06:59:59;;;;;;;8.40;1.70;;;15.80;99.90;;;;;;5077794;28;20041;-58
2023/08/08 07:02:25;;;;;;;6.88;1.25;;;15.90;99.90;;;;;;5078198;28;20092;-59
2023/08/08 07:04:51;;;;;;;7.68;1.42;;;15.90;99.90;;;;;;5079086;28;20086;-58
2023/08/08 07:07:17;;;;;;;6.32;1.30;;;16.00;99.90;;;;;;5076919;28;20052;-59
2023/08/08 07:09:43;;;;;;;6.25;1.52;;;16.00;99.90;;;;;;5061179;28;20056;-58
2023/08/08 07:12:09;;;;;;;7.40;1.35;;;16.10;99.90;;;;;;5076911;28;20056;-59
2023/08/08 07:14:34;;;;;;;6.60;1.40;;;16.10;99.90;;;;;;5078526;28;20053;-59
2023/08/08 07:17:02;;;;;;;8.95;1.30;;;16.00;99.90;;;;;;5059073;28;20407;-58
2023/08/08 07:19:27;;;;;;;7.22;1.30;;;16.20;99.90;;;;;;5077972;28;20055;-58
2023/08/08 07:21:53;;;;;;;9.98;1.40;;;16.20;99.90;;;;;;5078325;28;20052;-59
2023/08/08 07:24:20;;;;;;;9.68;2.15;;;16.40;99.90;;;;;;5076986;28;20104;-58
2023/08/08 07:26:46;;;;;;;4.88;1.42;;;16.40;99.90;;;;;;5078722;28;20044;-58
2023/08/08 07:29:11;;;;;;;4.13;1.20;;;16.30;99.90;;;;;;5076754;28;20047;-58
2023/08/08 07:31:37;;;;;;;7.00;1.42;;;16.40;99.90;;;;;;5078276;28;20045;-58
2023/08/08 07:34:03;;;;;;;6.82;1.40;;;16.30;99.90;;;;;;5077305;28;20055;-58
2023/08/08 07:36:28;;;;;;;5.35;1.10;;;16.30;99.90;;;;;;5077604;28;20066;-59
2023/08/08 07:38:59;;;;;;;6.22;1.10;;;16.40;99.90;;;;;;5078195;28;20407;-58
2023/08/08 07:41:26;;;;;;;7.68;1.77;;;16.40;99.90;;;;;;5076606;28;20579;-59
2023/08/08 07:43:52;;;;;;;6.82;1.30;;;16.40;99.90;;;;;;5078455;28;20052;-58
2023/08/08 07:46:18;;;;;;;6.13;1.17;;;16.40;99.90;;;;;;5076725;28;20041;-58
2023/08/08 07:48:44;;;;;;;4.93;1.08;;;16.40;99.90;;;;;;5078032;28;20051;-59
2023/08/08 07:51:09;;;;;;;6.45;1.02;;;16.30;99.90;;;;;;5076861;28;20076;-57
2023/08/08 07:53:35;;;;;;;6.28;1.27;;;16.50;99.90;;;;;;5059499;28;20041;-58
2023/08/08 07:56:00;;;;;;;7.13;1.40;;;16.40;99.90;;;;;;5083879;28;20032;-58
2023/08/08 07:58:27;;;;;;;8.50;1.38;;;16.50;99.90;;;;;;5100965;28;20032;-59
2023/08/08 08:00:53;;;;;;;5.53;1.20;;;16.40;99.90;;;;;;5103111;28;20052;-58
2023/08/08 08:03:19;;;;;;;7.00;1.60;;;16.30;99.90;;;;;;5100570;28;20073;-59
2023/08/08 08:05:45;;;;;;;5.95;1.10;;;16.30;99.90;;;;;;5102669;28;20044;-58
2023/08/08 08:08:11;;;;;;;5.00;1.20;;;16.30;99.90;;;;;;5101063;28;20090;-58
2023/08/08 08:10:37;;;;;;;5.18;1.30;;;16.40;99.90;;;;;;5102049;28;20069;-58
2023/08/08 08:13:02;;;;;;;9.02;1.45;;;16.30;99.90;;;;;;5102108;28;20473;-58
2023/08/08 08:15:28;;;;;;;6.50;1.20;;;16.30;99.90;;;;;;5100743;28;20047;-58
2023/08/08 08:17:54;;;;;;;8.10;1.65;;;16.40;99.90;;;;;;5102619;28;20032;-58
2023/08/08 08:20:20;;;;;;;5.75;1.33;;;16.30;99.90;;;;;;5100128;28;20073;-58
2023/08/08 08:22:46;;;;;;;8.40;1.05;;;16.20;99.90;;;;;;5102224;28;20044;-58
2023/08/08 08:25:13;;;;;;;6.70;1.77;;;16.20;99.90;;;;;;5100942;28;20452;-59
2023/08/08 08:27:39;;;;;;;6.97;1.60;;;16.20;99.90;;;;;;5101664;28;20043;-58
2023/08/08 08:30:06;;;;;;;5.70;1.30;;;16.10;99.90;;;;;;5101340;28;20063;-59
2023/08/08 08:32:36;;;;;;;4.75;1.10;;;16.00;99.90;;;;;;5100643;28;20077;-58
2023/08/08 08:35:03;;;;;;;5.88;1.48;;;16.00;99.90;;;;;;5084376;28;20047;-58
2023/08/08 08:37:30;;;;;;;8.65;1.25;;;16.00;99.90;;;;;;5099758;28;20052;-58
2023/08/08 08:39:55;;;;;;;7.80;1.42;;;16.00;99.90;;;;;;5102053;28;20028;-58
2023/08/08 08:42:22;;;;;;;5.90;1.00;;;16.20;99.90;;;;;;5100240;28;20048;-58
2023/08/08 08:44:49;;;;;;;6.07;1.20;;;16.50;99.90;;;;;;5101435;28;20044;-59
2023/08/08 08:47:19;;;;;;;4.63;1.00;;;16.80;99.90;;;;;;5101531;28;20036;-58
2023/08/08 08:49:45;;;;;;;5.60;1.17;;;16.70;99.90;;;;;;5099908;28;20044;-58
2023/08/08 08:52:11;;;;;;;5.63;1.27;;;16.40;99.90;;;;;;5102337;28;20347;-58
2023/08/08 08:54:38;;;;;;;4.57;1.10;;;16.30;99.90;;;;;;5099423;28;20048;-57
2023/08/08 08:57:04;;;;;;;7.68;1.30;;;16.50;99.90;;;;;;5088805;28;20057;-57
2023/08/08 08:59:30;;;;;;;6.90;1.45;;;16.70;99.90;;;;;;5079351;28;20040;-58
2023/08/08 09:01:56;;;;;;;5.72;1.13;;;16.80;99.90;;;;;;5080771;28;20043;-58
2023/08/08 09:04:23;;;;;;;4.68;0.93;;;16.70;99.90;;;;;;5080805;28;20048;-58
2023/08/08 09:06:50;;;;;;;5.88;1.30;;;16.30;99.90;;;;;;5079141;28;20056;-57
2023/08/08 09:09:16;;;;;;;6.47;1.55;;;16.10;99.90;;;;;;5063568;28;20052;-57
2023/08/08 09:11:47;;;;;;;8.65;1.58;;;15.90;99.90;;;;;;5078921;28;20100;-58
2023/08/08 09:14:26;;;;;;;8.95;1.30;;;16.20;99.90;;;;;;5081292;28;20575;-58
2023/08/08 09:16:53;;;;;;;5.57;1.10;;;16.50;99.90;;;;;;5079683;28;20036;-58
2023/08/08 09:19:20;;;;;;;5.22;1.20;;;16.80;99.90;;;;;;5080111;28;20048;-58
2023/08/08 09:21:47;;;;;;;6.72;1.23;;;16.90;99.90;;;;;;5080945;28;20045;-58
2023/08/08 09:24:13;;;;;;;7.63;1.40;;;16.90;99.90;;;;;;5078747;28;20102;-57
2023/08/08 09:26:40;;;;;;;5.43;1.38;;;16.90;99.90;;;;;;5063512;28;20033;-57
2023/08/08 09:29:06;;;;;;;7.65;1.10;;;17.00;99.90;;;;;;5078414;28;20082;-58
2023/08/08 09:31:33;;;;;;;4.38;1.10;;;17.10;99.90;;;;;;5080675;28;20496;-57
2023/08/08 09:34:01;;;;;;;6.13;1.20;;;17.40;99.90;;;;;;5079106;28;20035;-58
2023/08/08 09:36:27;;;;;;;3.55;0.80;;;17.60;99.90;;;;;;5062082;28;20070;-58
2023/08/08 09:38:54;;;;;;;4.38;0.90;;;17.80;99.90;;;;;;5080407;28;20036;-58
2023/08/08 09:41:21;;;;;;;5.18;0.90;;;17.70;89.00;;;;;;5078758;28;20124;-58
2023/08/08 09:43:52;;;;;;;8.77;1.27;;;17.50;94.20;;;;;;5080728;28;20067;-58
2023/08/08 09:46:21;;;;;;;4.57;1.02;;;17.20;95.70;;;;;;5078484;28;20074;-58
2023/08/08 09:48:47;;;;;;;6.20;1.10;;;17.40;99.90;;;;;;5080131;28;20044;-58
2023/08/08 09:51:14;;;;;;;5.15;1.00;;;17.10;99.90;;;;;;5078762;28;20052;-57
2023/08/08 09:53:40;;;;;;;6.43;1.63;;;16.70;99.90;;;;;;5079675;28;20051;-58
2023/08/08 09:56:07;;;;;;;7.10;1.30;;;15.90;99.90;;;;;;5085292;28;20058;-58
2023/08/08 09:58:33;;;;;;;4.68;1.20;;;15.40;99.90;;;;;;5098560;28;20052;-57
2023/08/08 10:00:59;;;;;;;8.48;1.42;;;14.80;99.90;;;;;;5100919;28;20062;-61
2023/08/08 10:03:26;;;;;;;4.65;1.00;;;14.30;99.90;;;;;;5098372;28;20047;-60
2023/08/08 10:05:52;;;;;;;5.15;1.13;;;14.40;99.90;;;;;;5100348;28;20071;-59
2023/08/08 10:08:19;;;;;;;8.57;1.73;;;14.50;99.90;;;;;;5098816;28;20495;-59
2023/08/08 10:10:47;;;;;;;6.13;1.58;;;14.40;99.90;;;;;;5099609;28;20066;-59
2023/08/08 10:13:24;;;;;;;9.32;1.27;;;14.50;99.90;;;;;;5100029;28;20111;-58
2023/08/08 10:15:50;;;;;;;8.38;1.80;;;14.70;99.90;;;;;;5098232;28;20245;-59
2023/08/08 10:18:16;;;;;;;7.82;1.27;;;14.80;99.90;;;;;;5099228;28;20483;-59
2023/08/08 10:20:48;;;;;;;9.00;1.50;;;14.70;99.90;;;;;;5098139;28;20075;-58
2023/08/08 10:23:17;;;;;;;12.52;1.52;;;14.80;99.90;;;;;;5099714;28;20040;-59
2023/08/08 10:25:55;;;;;;;8.15;1.33;;;15.30;99.90;;;;;;5099163;28;20090;-58
2023/08/08 10:28:22;;;;;;;6.32;1.25;;;16.00;99.90;;;;;;5098399;28;20036;-59
2023/08/08 10:30:53;;;;;;;6.95;1.23;;;16.40;99.90;;;;;;5099827;28;20052;-58
2023/08/08 10:33:39;;;;;;;6.40;1.23;;;16.70;99.90;;;;;;5097777;28;20051;-58
2023/08/08 10:36:06;;;;;;;7.43;1.15;;;16.80;99.90;;;;;;5099771;28;20036;-58
2023/08/08 10:38:46;;;;;;;5.80;1.20;;;17.00;99.90;;;;;;5098762;28;20058;-58
2023/08/08 10:41:14;;;;;;;5.75;1.25;;;17.10;99.90;;;;;;5098117;28;20059;-58
2023/08/08 10:43:51;;;;;;;6.07;0.98;;;17.10;99.90;;;;;;5099554;28;20496;-59
2023/08/08 10:46:30;;;;;;;3.60;1.02;;;17.20;99.90;;;;;;5097691;28;20059;-58
2023/08/08 10:49:01;;;;;;;6.70;1.77;;;17.00;89.30;;;;;;5099194;28;20123;-59
2023/08/08 10:51:54;;;;;;;6.93;1.27;;;17.00;93.30;;;;;;5098637;28;20094;-58
2023/08/08 10:54:27;;;;;;;7.78;1.13;;;17.10;90.00;;;;;;5093308;28;20112;-58
2023/08/08 10:56:55;;;;;;;7.45;1.67;;;17.40;85.30;;;;;;5069667;28;20050;-58
2023/08/08 10:59:26;;;;;;;4.40;0.90;;;17.00;88.30;;;;;;5077257;28;20093;-58
2023/08/08 11:01:52;;;;;;;10.35;1.30;;;17.10;86.50;;;;;;5078694;28;20048;-59
2023/08/08 11:04:21;;;;;;;6.55;1.40;;;17.40;89.20;;;;;;5078098;28;20045;-58
2023/08/08 11:06:47;;;;;;;4.45;1.05;;;17.50;87.90;;;;;;5077723;28;20384;-59
2023/08/08 11:09:14;;;;;;;6.45;1.23;;;17.70;80.60;;;;;;5078765;28;20040;-58
2023/08/08 11:11:41;;;;;;;6.22;1.27;;;17.70;74.90;;;;;;5076945;28;20041;-59
2023/08/08 11:14:15;;;;;;;6.55;1.20;;;17.60;71.00;;;;;;5078964;28;20041;-59
2023/08/08 11:16:41;;;;;;;5.30;1.02;;;17.30;75.20;;;;;;5077410;28;20044;-59
2023/08/08 11:19:08;;;;;;;7.82;1.10;;;17.40;86.30;;;;;;5078054;28;20049;-58
2023/08/08 11:21:42;;;;;;;7.88;1.50;;;17.90;85.90;;;;;;5077997;28;20048;-58
2023/08/08 11:24:08;;;;;;;4.95;1.00;;;17.60;73.60;;;;;;5076821;28;20056;-58
2023/08/08 11:26:34;;;;;;;4.25;0.95;;;17.80;70.20;;;;;;5078920;28;20053;-57
2023/08/08 11:29:01;;;;;;;4.50;1.10;;;17.90;70.00;;;;;;5076749;28;20119;-58
2023/08/08 11:31:28;;;;;;;6.95;1.10;;;17.70;71.50;;;;;;5078220;28;20037;-59
2023/08/08 11:33:57;;;;;;;5.70;1.02;;;17.80;74.60;;;;;;5077214;28;20048;-58
2023/08/08 11:36:23;;;;;;;5.75;1.35;;;18.00;74.60;;;;;;5077521;28;20044;-58
2023/08/08 11:38:50;;;;;;;5.57;0.98;;;17.80;76.40;;;;;;5078300;28;20044;-58
2023/08/08 11:41:20;;;;;;;7.63;1.20;;;17.80;76.00;;;;;;5076644;28;20139;-58
2023/08/08 11:43:46;;;;;;;6.82;1.20;;;17.50;70.20;;;;;;5078537;28;20060;-58
2023/08/08 11:46:12;;;;;;;7.85;1.23;;;17.60;81.00;;;;;;5058806;28;20613;-59
2023/08/08 11:48:39;;;;;;;5.22;1.10;;;17.90;79.40;;;;;;5059822;28;20037;-58
2023/08/08 11:51:05;;;;;;;5.80;1.00;;;18.00;71.10;;;;;;5077052;28;20625;-59
2023/08/08 11:53:31;;;;;;;3.53;0.88;;;18.30;69.10;;;;;;5077746;28;20036;-59
2023/08/08 11:55:59;;;;;;;8.05;1.08;;;18.20;70.00;;;;;;5082010;28;20047;-58
2023/08/08 11:58:25;;;;;;;5.65;1.10;;;17.80;62.60;;;;;;5096428;28;20075;-59
2023/08/08 12:00:51;;;;;;;7.97;1.25;;;17.60;66.90;;;;;;5098495;28;20035;-59
2023/08/08 12:03:18;;;;;;;7.72;1.90;;;17.50;72.90;;;;;;5096503;28;20503;-59
2023/08/08 12:05:48;;;;;;;9.40;1.10;;;17.50;75.20;;;;;;5098549;28;20036;-58
2023/08/08 12:08:19;;;;;;;5.93;1.10;;;17.00;78.20;;;;;;5097390;28;20051;-58
2023/08/08 12:10:53;;;;;;;6.53;1.07;;;16.80;88.30;;;;;;5097485;28;20487;-58
2023/08/08 12:13:22;;;;;;;7.07;1.52;;;16.50;93.20;;;;;;5098702;28;20806;-58
2023/08/08 12:15:49;;;;;;;9.10;1.35;;;16.60;98.70;;;;;;5077917;28;20072;-58
2023/08/08 12:18:18;;;;;;;8.63;1.13;;;16.80;97.80;;;;;;5098377;28;20111;-58
2023/08/08 12:20:44;;;;;;;5.20;1.17;;;16.90;95.50;;;;;;5096614;28;20040;-58
2023/08/08 12:23:10;;;;;;;7.47;1.27;;;16.60;91.00;;;;;;5097746;28;20044;-58
2023/08/08 12:25:36;;;;;;;6.05;1.23;;;17.00;92.00;;;;;;5097714;28;20078;-58
2023/08/08 12:28:03;;;;;;;6.45;1.50;;;17.20;85.30;;;;;;5096977;28;20048;-58
2023/08/08 12:30:28;;;;;;;5.07;1.10;;;17.00;92.00;;;;;;5098177;28;20055;-58
2023/08/08 12:32:54;;;;;;;6.00;1.15;;;16.90;93.70;;;;;;5096066;28;20479;-58
2023/08/08 12:35:20;;;;;;;8.77;1.42;;;17.00;90.50;;;;;;5098909;28;20065;-58
2023/08/08 12:37:46;;;;;;;7.03;1.42;;;17.00;93.00;;;;;;5095994;28;20040;-58
2023/08/08 12:40:13;;;;;;;9.00;1.42;;;16.80;90.40;;;;;;5097891;28;20068;-57
2023/08/08 12:42:39;;;;;;;8.63;1.77;;;17.00;86.90;;;;;;5099411;28;20047;-58